Aurora Springs, Missouri
Current Conditions -  °F | °C
As of 8:15 AM on Thursday 18 Dec 2014 (Local Time) from KAIZ Reporting Station
Overcast Overcast  
Wind Chill: 25°   Ceiling: 3400
Heat Index: 30°   Visibility: 2mi
Dew Point: 28°   Wind: 5mph
Humidity: 93%   Direction: 80°E
Pressure: 30.22"   Gusts: NA
Location:  38.333°N, 92.5524°W
Report Text: KAIZ 181415Z AUTO 08004KT 2SM SCT005 OVC034 M01/M02 A3022 RMK AO1
Loading
Personal Weather Stations






























Interactive Weather Map New forecast layout! Learn more

10-Day Weather Forecast

Advertisements
Track Severe Weather on mobile